Time;durP1;ratioP1;P1;durP2;ratioP2;P2;SDS_P1;SDS_P2;PMS_P1;PMS_P2;Temp;Humidity;BMP_temperature;BMP_pressure;BME280_temperature;BME280_humidity;BME280_pressure;Samples;Min_cycle;Max_cycle;Signal;HPM_P1;HPM_P2
2023/08/02 00:00:33;;;;;;;1.10;1.00;;;22.90;47.20;;;;;;5036314;28;20218;-63
2023/08/02 00:02:58;;;;;;;1.30;1.20;;;22.90;47.20;;;;;;5025187;28;20225;-62
2023/08/02 00:05:24;;;;;;;1.17;1.07;;;23.00;47.30;;;;;;5016932;28;20455;-63
2023/08/02 00:07:49;;;;;;;1.20;1.10;;;23.00;47.30;;;;;;5018992;28;20229;-62
2023/08/02 00:10:15;;;;;;;1.20;1.10;;;23.00;47.30;;;;;;5036094;28;20280;-62
2023/08/02 00:12:40;;;;;;;1.00;1.00;;;23.00;47.30;;;;;;5018463;28;20270;-63
2023/08/02 00:15:06;;;;;;;1.50;1.40;;;23.00;47.30;;;;;;5025511;28;20230;-62
2023/08/02 00:17:32;;;;;;;1.40;1.30;;;23.00;47.30;;;;;;5021985;28;20214;-62
2023/08/02 00:19:57;;;;;;;1.67;1.23;;;23.00;47.30;;;;;;5021406;28;21124;-64
2023/08/02 00:22:23;;;;;;;1.07;0.97;;;23.00;47.30;;;;;;5029870;28;20229;-62
2023/08/02 00:24:48;;;;;;;1.30;1.20;;;22.90;47.20;;;;;;5033303;28;20324;-62
2023/08/02 00:27:14;;;;;;;1.83;1.20;;;22.90;47.20;;;;;;5036949;28;20225;-62
2023/08/02 00:29:40;;;;;;;1.20;1.10;;;22.90;47.20;;;;;;5017571;28;20223;-65
2023/08/02 00:32:06;;;;;;;1.83;1.13;;;22.90;47.20;;;;;;5015490;28;20235;-62
2023/08/02 00:34:32;;;;;;;1.00;0.90;;;23.00;47.30;;;;;;5018883;28;20464;-62
2023/08/02 00:36:57;;;;;;;1.07;1.00;;;23.00;47.30;;;;;;5033409;28;20295;-63
2023/08/02 00:39:23;;;;;;;1.30;1.20;;;23.00;47.30;;;;;;5035516;28;20226;-63
2023/08/02 00:41:48;;;;;;;1.20;1.10;;;22.90;47.20;;;;;;5028275;28;20238;-62
2023/08/02 00:44:14;;;;;;;1.57;1.37;;;22.90;47.20;;;;;;5032880;28;20214;-62
2023/08/02 00:46:40;;;;;;;1.77;1.13;;;22.90;47.20;;;;;;5033719;28;20257;-62
2023/08/02 00:49:05;;;;;;;1.20;1.10;;;22.90;48.00;;;;;;5036685;28;20681;-62
2023/08/02 00:51:33;;;;;;;1.20;1.10;;;22.90;47.20;;;;;;5024741;28;20222;-62
2023/08/02 00:54:02;;;;;;;2.10;1.43;;;22.90;47.20;;;;;;5020824;28;20243;-62
2023/08/02 00:56:31;;;;;;;1.27;1.17;;;22.90;47.20;;;;;;5018802;28;20476;-63
2023/08/02 00:58:56;;;;;;;1.50;1.40;;;22.90;47.20;;;;;;5034577;28;20481;-63
2023/08/02 01:01:22;;;;;;;1.10;1.00;;;22.90;47.20;;;;;;5027592;28;20505;-62
2023/08/02 01:03:48;;;;;;;1.00;0.90;;;22.90;47.20;;;;;;5014752;28;20586;-62
2023/08/02 01:06:31;;;;;;;1.60;1.50;;;22.90;47.20;;;;;;5025512;28;20224;-62
2023/08/02 01:09:05;;;;;;;1.07;0.97;;;22.90;47.20;;;;;;5028123;28;20697;-63
2023/08/02 01:11:54;;;;;;;1.17;1.07;;;22.90;47.20;;;;;;5021259;28;20562;-62
2023/08/02 01:14:21;;;;;;;1.10;1.00;;;22.90;47.20;;;;;;5032326;28;20450;-63
2023/08/02 01:16:49;;;;;;;1.17;1.07;;;22.90;47.20;;;;;;5036721;28;20975;-62
2023/08/02 01:19:20;;;;;;;1.60;1.10;;;22.90;47.20;;;;;;5022801;28;20456;-62
2023/08/02 01:21:46;;;;;;;1.27;1.17;;;22.90;47.20;;;;;;5030626;28;20444;-62
2023/08/02 01:24:12;;;;;;;2.90;1.20;;;22.90;47.20;;;;;;5029613;28;20447;-63
2023/08/02 01:26:41;;;;;;;1.90;1.10;;;22.90;47.20;;;;;;5027068;28;20710;-62
2023/08/02 01:29:12;;;;;;;1.13;1.07;;;22.90;47.20;;;;;;5032181;28;20229;-62
2023/08/02 01:31:39;;;;;;;1.20;1.10;;;22.90;47.20;;;;;;5023445;28;20947;-63
2023/08/02 01:34:06;;;;;;;1.10;1.00;;;22.90;47.20;;;;;;5015256;28;20473;-63
2023/08/02 01:36:32;;;;;;;1.37;1.00;;;22.90;47.30;;;;;;5021327;28;20471;-62
2023/08/02 01:38:59;;;;;;;1.20;1.00;;;22.90;47.20;;;;;;5033317;28;20470;-62
2023/08/02 01:41:24;;;;;;;1.20;1.10;;;22.90;47.20;;;;;;5028696;28;20455;-64
2023/08/02 01:43:50;;;;;;;1.10;1.00;;;22.90;47.20;;;;;;5037297;28;20292;-63
2023/08/02 01:46:15;;;;;;;1.30;1.20;;;22.90;47.20;;;;;;5028888;28;20250;-63
2023/08/02 01:48:41;;;;;;;1.00;0.90;;;22.90;47.20;;;;;;5017399;28;20300;-62
2023/08/02 01:51:06;;;;;;;1.13;1.03;;;22.90;47.20;;;;;;5023716;28;20576;-62
2023/08/02 01:53:32;;;;;;;1.30;1.20;;;22.90;47.20;;;;;;5038085;28;20229;-65
2023/08/02 01:55:58;;;;;;;1.10;1.00;;;22.90;47.20;;;;;;5038565;28;20261;-62
2023/08/02 01:58:23;;;;;;;1.20;1.03;;;22.90;47.20;;;;;;5036971;28;20300;-62
2023/08/02 02:00:49;;;;;;;1.30;1.20;;;22.90;47.20;;;;;;5031417;28;20313;-62
2023/08/02 02:03:14;;;;;;;1.33;1.20;;;22.90;47.20;;;;;;5034754;28;20277;-62
2023/08/02 02:05:40;;;;;;;3.23;1.10;;;22.90;47.20;;;;;;5032511;28;20226;-62
2023/08/02 02:08:05;;;;;;;1.10;1.00;;;22.90;47.20;;;;;;5031909;28;20225;-63
2023/08/02 02:10:31;;;;;;;1.10;1.00;;;22.90;47.20;;;;;;5036103;28;20245;-62
2023/08/02 02:12:57;;;;;;;1.23;1.10;;;22.90;47.20;;;;;;5038653;28;20619;-62
2023/08/02 02:15:22;;;;;;;1.20;1.10;;;22.90;47.20;;;;;;5037694;28;20234;-62
2023/08/02 02:17:48;;;;;;;1.37;1.27;;;22.90;47.20;;;;;;5020513;28;20451;-63
2023/08/02 02:20:13;;;;;;;1.10;1.00;;;22.90;47.20;;;;;;5034604;28;20693;-63
2023/08/02 02:22:39;;;;;;;1.30;1.20;;;22.90;47.20;;;;;;5032334;28;20233;-62
2023/08/02 02:25:05;;;;;;;1.87;1.07;;;22.90;47.20;;;;;;5024638;28;20681;-62
2023/08/02 02:27:31;;;;;;;2.80;1.07;;;22.90;47.20;;;;;;5034697;28;20581;-62
2023/08/02 02:29:56;;;;;;;1.00;0.83;;;22.90;47.20;;;;;;5036973;28;20591;-64
2023/08/02 02:32:22;;;;;;;1.60;1.20;;;22.90;47.20;;;;;;5022308;28;20226;-62
2023/08/02 02:34:47;;;;;;;1.30;1.20;;;22.90;47.20;;;;;;5036310;28;20327;-62
2023/08/02 02:37:12;;;;;;;1.10;1.00;;;22.90;47.20;;;;;;5024830;28;20233;-62
2023/08/02 02:39:38;;;;;;;1.20;1.10;;;22.90;47.20;;;;;;5037958;28;20332;-63
2023/08/02 02:42:04;;;;;;;1.10;1.00;;;22.90;47.10;;;;;;5026345;28;20902;-64
2023/08/02 02:44:47;;;;;;;1.37;1.17;;;22.90;47.20;;;;;;5035803;28;20230;-62
2023/08/02 02:47:13;;;;;;;1.30;1.20;;;22.90;47.20;;;;;;5038313;28;20237;-61
2023/08/02 02:49:38;;;;;;;1.10;1.00;;;22.90;47.20;;;;;;5033863;28;20534;-62
2023/08/02 02:52:04;;;;;;;0.97;0.97;;;22.90;47.20;;;;;;5031259;28;20234;-63
2023/08/02 02:54:30;;;;;;;1.43;1.33;;;22.90;47.20;;;;;;5034815;28;20237;-63
2023/08/02 02:56:55;;;;;;;1.37;1.10;;;22.90;47.20;;;;;;5032820;28;20270;-62
2023/08/02 02:59:21;;;;;;;1.30;1.20;;;22.90;47.10;;;;;;5028702;28;20691;-62
2023/08/02 03:01:46;;;;;;;1.30;1.20;;;22.90;46.80;;;;;;5023667;28;20265;-62
2023/08/02 03:04:12;;;;;;;5.00;1.50;;;22.90;46.60;;;;;;5036275;28;20625;-62
2023/08/02 03:06:37;;;;;;;1.20;1.10;;;22.90;46.60;;;;;;5031831;28;20229;-61
2023/08/02 03:09:03;;;;;;;1.50;1.17;;;22.90;46.70;;;;;;5034373;28;20229;-62
2023/08/02 03:11:29;;;;;;;1.17;1.00;;;22.90;46.50;;;;;;5032959;28;20603;-62
2023/08/02 03:13:55;;;;;;;2.40;1.30;;;22.90;46.30;;;;;;5032633;28;21033;-62
2023/08/02 03:16:20;;;;;;;1.30;1.20;;;22.90;46.50;;;;;;5034932;28;20238;-64
2023/08/02 03:18:48;;;;;;;1.77;1.47;;;22.90;46.50;;;;;;5034323;28;20572;-61
2023/08/02 03:21:13;;;;;;;1.27;1.17;;;22.90;46.30;;;;;;5035383;28;20226;-61
2023/08/02 03:23:41;;;;;;;1.40;1.30;;;22.90;46.10;;;;;;5034154;28;20824;-61
2023/08/02 03:26:07;;;;;;;1.20;1.10;;;22.90;46.10;;;;;;5018171;28;20230;-62
2023/08/02 03:28:33;;;;;;;1.27;1.17;;;22.90;46.00;;;;;;5032931;28;20452;-62
2023/08/02 03:30:58;;;;;;;1.33;1.23;;;22.90;45.90;;;;;;5036259;28;20221;-61
2023/08/02 03:33:24;;;;;;;1.13;1.03;;;22.90;45.90;;;;;;5016686;28;20241;-62
2023/08/02 03:35:49;;;;;;;1.40;1.30;;;22.90;46.00;;;;;;5022955;28;20252;-62
2023/08/02 03:38:15;;;;;;;1.30;1.20;;;22.90;46.10;;;;;;5032992;28;20226;-61
2023/08/02 03:40:40;;;;;;;1.37;1.27;;;22.90;46.10;;;;;;5033044;28;20227;-61
2023/08/02 03:43:06;;;;;;;1.30;1.20;;;22.90;46.10;;;;;;5035288;28;20316;-62
2023/08/02 03:45:31;;;;;;;2.60;1.40;;;22.90;46.00;;;;;;5035522;28;20234;-62
2023/08/02 03:47:57;;;;;;;1.20;1.10;;;22.90;45.90;;;;;;5030871;28;20223;-63
2023/08/02 03:50:22;;;;;;;1.30;1.20;;;22.90;45.80;;;;;;5020878;28;21662;-62
2023/08/02 03:52:49;;;;;;;1.40;1.30;;;22.90;45.70;;;;;;5032787;28;20227;-62
2023/08/02 03:55:14;;;;;;;1.30;1.20;;;22.90;46.50;;;;;;5020029;28;20349;-62
2023/08/02 03:57:40;;;;;;;1.20;1.10;;;22.90;45.60;;;;;;5036402;28;20455;-61
2023/08/02 04:00:06;;;;;;;1.50;1.40;;;22.90;45.50;;;;;;5023645;28;20261;-62
2023/08/02 04:02:32;;;;;;;1.53;1.23;;;22.90;45.50;;;;;;5011999;28;20818;-63
2023/08/02 04:04:58;;;;;;;1.30;1.20;;;22.90;45.50;;;;;;5031226;28;20546;-62
2023/08/02 04:07:23;;;;;;;1.30;1.20;;;22.90;45.50;;;;;;5035143;28;20529;-62
2023/08/02 04:09:48;;;;;;;1.50;1.00;;;22.90;45.50;;;;;;5033156;28;20232;-62
2023/08/02 04:12:17;;;;;;;1.30;1.20;;;22.90;45.40;;;;;;5028303;28;20250;-62
2023/08/02 04:14:43;;;;;;;1.30;1.20;;;22.90;45.30;;;;;;5032141;28;21907;-64
2023/08/02 04:17:08;;;;;;;2.50;1.00;;;22.90;45.20;;;;;;5033021;28;20493;-62
2023/08/02 04:19:34;;;;;;;1.10;1.00;;;22.90;45.30;;;;;;5027275;28;20222;-61
2023/08/02 04:22:00;;;;;;;1.30;1.20;;;22.90;45.30;;;;;;5020311;28;20236;-62
2023/08/02 04:24:25;;;;;;;1.20;1.10;;;22.90;45.40;;;;;;5024505;28;20721;-63
2023/08/02 04:26:51;;;;;;;1.30;1.20;;;22.90;45.60;;;;;;5027286;28;20686;-62
2023/08/02 04:29:16;;;;;;;1.20;1.10;;;22.90;45.50;;;;;;5030522;28;23637;-63
2023/08/02 04:31:42;;;;;;;1.00;1.00;;;22.90;45.60;;;;;;5023489;28;20830;-62
2023/08/02 04:34:07;;;;;;;1.10;1.00;;;22.90;45.70;;;;;;5020282;28;20360;-62
2023/08/02 04:36:33;;;;;;;1.30;1.20;;;23.00;46.00;;;;;;5023140;28;20239;-63
2023/08/02 04:39:02;;;;;;;2.10;1.10;;;23.00;46.10;;;;;;5025638;28;20237;-63
2023/08/02 04:41:27;;;;;;;1.40;1.30;;;23.00;46.20;;;;;;5027643;28;20775;-65
2023/08/02 04:43:53;;;;;;;3.63;1.10;;;23.00;46.30;;;;;;5031521;28;20464;-62
2023/08/02 04:46:18;;;;;;;1.30;1.20;;;23.00;47.30;;;;;;5028186;28;20229;-62
2023/08/02 04:48:44;;;;;;;1.30;1.00;;;23.00;46.50;;;;;;5033035;28;20304;-62
2023/08/02 04:51:10;;;;;;;1.10;1.00;;;23.00;46.60;;;;;;5032502;28;20268;-61
2023/08/02 04:53:36;;;;;;;1.10;1.00;;;23.00;46.80;;;;;;5031186;28;20263;-62
2023/08/02 04:56:02;;;;;;;1.40;0.90;;;23.00;46.90;;;;;;5028028;28;20467;-62
2023/08/02 04:58:27;;;;;;;1.67;1.13;;;23.00;47.10;;;;;;5034671;28;20305;-62
2023/08/02 05:00:53;;;;;;;1.20;1.10;;;23.00;47.10;;;;;;5030457;28;20836;-63
2023/08/02 05:03:18;;;;;;;1.50;1.40;;;23.00;47.30;;;;;;5012595;28;20235;-61
2023/08/02 05:05:44;;;;;;;2.03;1.20;;;23.00;47.30;;;;;;5026344;28;20226;-61
2023/08/02 05:08:09;;;;;;;2.47;1.37;;;23.00;47.30;;;;;;5027347;28;20218;-61
2023/08/02 05:10:37;;;;;;;2.10;1.40;;;23.00;47.30;;;;;;5032216;28;20693;-64
2023/08/02 05:13:05;;;;;;;1.40;1.30;;;23.00;47.30;;;;;;5028991;28;20234;-62
2023/08/02 05:15:35;;;;;;;1.20;1.10;;;23.00;47.30;;;;;;5012803;28;20541;-63
2023/08/02 05:18:01;;;;;;;1.60;1.50;;;23.00;47.30;;;;;;5030986;28;20460;-63
2023/08/02 05:20:31;;;;;;;2.07;1.10;;;23.00;47.30;;;;;;5033180;28;20524;-62
2023/08/02 05:22:57;;;;;;;1.50;1.20;;;23.00;47.30;;;;;;5034971;28;20253;-64
2023/08/02 05:25:29;;;;;;;1.47;1.10;;;23.00;47.30;;;;;;5030415;28;20594;-63
2023/08/02 05:27:55;;;;;;;1.30;1.20;;;23.00;47.30;;;;;;5018368;28;20326;-62
2023/08/02 05:30:20;;;;;;;1.63;1.10;;;23.00;47.30;;;;;;5017613;28;21466;-63
2023/08/02 05:32:48;;;;;;;1.30;1.20;;;23.00;47.30;;;;;;5016500;28;20215;-62
2023/08/02 05:35:14;;;;;;;1.40;1.30;;;23.00;47.30;;;;;;5014335;28;20310;-63
2023/08/02 05:37:39;;;;;;;4.73;1.10;;;23.00;47.30;;;;;;5022273;28;20540;-62
2023/08/02 05:40:05;;;;;;;2.17;1.20;;;23.00;47.30;;;;;;5033458;28;20304;-63
2023/08/02 05:42:31;;;;;;;1.27;1.17;;;23.00;47.30;;;;;;5023516;28;20233;-63
2023/08/02 05:44:56;;;;;;;1.20;1.10;;;23.00;47.30;;;;;;5032427;28;20483;-63
2023/08/02 05:47:22;;;;;;;1.40;1.10;;;23.00;47.40;;;;;;5032127;28;20222;-63
2023/08/02 05:49:48;;;;;;;1.97;1.10;;;23.00;47.30;;;;;;5032246;28;20226;-63
2023/08/02 05:52:17;;;;;;;1.30;1.20;;;23.00;47.30;;;;;;5034427;28;20854;-63
2023/08/02 05:54:43;;;;;;;1.57;1.10;;;23.00;47.30;;;;;;5012086;28;20498;-69
2023/08/02 05:57:09;;;;;;;4.70;1.37;;;23.00;47.30;;;;;;5015560;28;20475;-62
2023/08/02 05:59:37;;;;;;;1.10;1.00;;;23.00;47.30;;;;;;5020282;28;20457;-62
2023/08/02 06:02:03;;;;;;;3.90;1.40;;;23.00;47.30;;;;;;5023462;28;20219;-62
2023/08/02 06:04:29;;;;;;;1.27;1.17;;;23.00;47.30;;;;;;5035898;28;20490;-63
2023/08/02 06:06:54;;;;;;;1.30;1.20;;;23.00;47.30;;;;;;5033195;28;20914;-63
2023/08/02 06:09:20;;;;;;;1.37;1.27;;;23.00;47.30;;;;;;5026222;28;20233;-61
2023/08/02 06:11:46;;;;;;;1.40;1.30;;;23.00;47.30;;;;;;5017134;28;20278;-62
2023/08/02 06:14:11;;;;;;;1.67;1.10;;;23.00;47.30;;;;;;5016176;28;20456;-62
2023/08/02 06:16:37;;;;;;;1.40;1.30;;;23.00;47.40;;;;;;5021039;28;20686;-62
2023/08/02 06:19:02;;;;;;;1.40;1.30;;;23.00;47.30;;;;;;5034531;28;20938;-62
2023/08/02 06:21:28;;;;;;;1.10;1.00;;;23.00;47.30;;;;;;5033522;28;20233;-62
2023/08/02 06:23:53;;;;;;;1.30;1.20;;;23.00;47.30;;;;;;5035149;28;20852;-62
2023/08/02 06:26:19;;;;;;;1.60;0.97;;;23.00;47.30;;;;;;5028099;28;20226;-62
2023/08/02 06:28:45;;;;;;;1.10;1.00;;;23.00;47.30;;;;;;5018221;28;20750;-62
2023/08/02 06:31:10;;;;;;;1.40;1.07;;;23.00;47.30;;;;;;5024441;28;20269;-62
2023/08/02 06:33:36;;;;;;;1.20;1.10;;;23.00;47.30;;;;;;5027575;28;20313;-62
2023/08/02 06:36:01;;;;;;;4.87;1.23;;;23.00;47.30;;;;;;5022963;28;20257;-62
2023/08/02 06:38:27;;;;;;;1.60;1.50;;;23.00;47.30;;;;;;5014930;28;20211;-62
2023/08/02 06:40:53;;;;;;;1.30;1.03;;;23.00;47.30;;;;;;5019605;28;20739;-61
2023/08/02 06:43:18;;;;;;;1.00;0.90;;;23.00;47.30;;;;;;5035744;28;20214;-62
2023/08/02 06:45:47;;;;;;;1.20;1.10;;;23.00;47.30;;;;;;5030979;28;20694;-62
2023/08/02 06:48:15;;;;;;;1.30;1.20;;;23.00;47.30;;;;;;5023655;28;21662;-62
2023/08/02 06:50:40;;;;;;;1.33;1.20;;;23.00;47.30;;;;;;5025666;28;20460;-62
2023/08/02 06:53:06;;;;;;;1.60;1.23;;;23.00;47.30;;;;;;5021669;28;20985;-60
2023/08/02 06:55:31;;;;;;;1.27;1.17;;;23.00;47.30;;;;;;5020802;28;20273;-60
2023/08/02 06:57:57;;;;;;;1.10;1.00;;;23.00;47.30;;;;;;5015764;28;20850;-60
2023/08/02 07:00:22;;;;;;;1.30;1.20;;;23.00;47.30;;;;;;5012605;28;20315;-60
2023/08/02 07:02:48;;;;;;;1.20;1.10;;;23.00;47.30;;;;;;5031799;28;20279;-60
2023/08/02 07:05:13;;;;;;;1.30;1.20;;;23.00;47.30;;;;;;5020143;28;20225;-61
2023/08/02 07:07:39;;;;;;;1.53;1.40;;;23.00;47.30;;;;;;5032919;28;20238;-60
2023/08/02 07:10:05;;;;;;;1.30;1.20;;;23.00;47.30;;;;;;5028463;28;20316;-61
2023/08/02 07:12:30;;;;;;;1.63;1.30;;;23.00;47.30;;;;;;5030088;28;20233;-61
2023/08/02 07:14:56;;;;;;;1.30;1.20;;;23.00;47.30;;;;;;5033810;28;20226;-61
2023/08/02 07:17:21;;;;;;;1.13;1.03;;;23.00;47.30;;;;;;5014017;28;20349;-60
2023/08/02 07:19:48;;;;;;;1.40;1.30;;;23.00;47.40;;;;;;5024066;28;20237;-60
2023/08/02 07:22:17;;;;;;;1.40;1.30;;;23.00;47.40;;;;;;5026879;28;20226;-61
2023/08/02 07:24:43;;;;;;;1.47;1.37;;;23.00;47.30;;;;;;5019504;28;20554;-60
2023/08/02 07:27:09;;;;;;;1.40;1.30;;;23.00;47.40;;;;;;5023251;28;20984;-60
2023/08/02 07:29:35;;;;;;;1.70;1.30;;;23.00;47.30;;;;;;5034134;28;20870;-61
2023/08/02 07:32:01;;;;;;;1.53;1.20;;;23.00;47.40;;;;;;5031241;28;20455;-61
2023/08/02 07:34:26;;;;;;;1.43;1.20;;;23.00;47.40;;;;;;5016785;28;20238;-61
2023/08/02 07:36:52;;;;;;;1.40;1.30;;;23.00;47.50;;;;;;5027361;28;20313;-61
2023/08/02 07:39:17;;;;;;;1.50;1.40;;;23.00;47.50;;;;;;5033339;28;20226;-60
2023/08/02 07:41:43;;;;;;;1.70;1.60;;;23.00;47.50;;;;;;5023708;28;20234;-61
2023/08/02 07:44:09;;;;;;;1.37;1.27;;;23.00;47.60;;;;;;5022092;28;20297;-61
2023/08/02 07:46:34;;;;;;;1.50;1.20;;;23.00;47.50;;;;;;5016158;28;20240;-61
2023/08/02 07:49:00;;;;;;;2.40;1.40;;;23.00;47.50;;;;;;5026886;28;20394;-61
2023/08/02 07:51:25;;;;;;;1.37;1.20;;;23.00;47.60;;;;;;5016893;28;20245;-61
2023/08/02 07:53:51;;;;;;;1.37;1.27;;;23.00;47.60;;;;;;5027303;28;20223;-61
2023/08/02 07:56:16;;;;;;;1.30;1.20;;;23.00;47.60;;;;;;5022218;28;20285;-62
2023/08/02 07:58:42;;;;;;;1.30;1.20;;;23.00;47.60;;;;;;5020665;28;20686;-62
2023/08/02 08:01:08;;;;;;;1.47;1.37;;;23.00;47.70;;;;;;5030100;28;20332;-62
2023/08/02 08:03:35;;;;;;;1.27;1.17;;;23.00;47.60;;;;;;5028518;28;20233;-63
2023/08/02 08:06:08;;;;;;;1.60;1.50;;;23.00;47.60;;;;;;5004666;28;20959;-63
2023/08/02 08:08:33;;;;;;;1.20;1.10;;;23.00;47.60;;;;;;5015274;28;20539;-64
2023/08/02 08:10:59;;;;;;;1.10;1.00;;;23.00;47.60;;;;;;5023939;28;20856;-62
2023/08/02 08:13:24;;;;;;;1.20;1.00;;;23.00;47.60;;;;;;5020090;28;20226;-62
2023/08/02 08:15:50;;;;;;;1.30;1.20;;;23.00;47.60;;;;;;5017658;28;20237;-63
2023/08/02 08:18:15;;;;;;;1.40;1.30;;;23.00;47.60;;;;;;5022881;28;20229;-62
2023/08/02 08:20:41;;;;;;;1.60;1.40;;;23.00;47.60;;;;;;5026478;28;21126;-62
2023/08/02 08:23:06;;;;;;;1.60;1.50;;;23.00;47.60;;;;;;5025534;28;20218;-61
2023/08/02 08:25:32;;;;;;;1.50;1.40;;;23.00;47.60;;;;;;5025124;28;20281;-60
2023/08/02 08:28:00;;;;;;;1.60;1.50;;;23.00;47.70;;;;;;5021457;28;20225;-61
2023/08/02 08:30:26;;;;;;;1.37;1.27;;;23.00;47.70;;;;;;5029705;28;20294;-60
2023/08/02 08:32:53;;;;;;;1.70;1.50;;;23.00;47.80;;;;;;5020677;28;20459;-60
2023/08/02 08:35:18;;;;;;;2.00;1.30;;;23.00;47.70;;;;;;5019536;28;20702;-61
2023/08/02 08:37:44;;;;;;;1.73;1.63;;;23.00;47.80;;;;;;5006663;28;20456;-60
2023/08/02 08:40:17;;;;;;;1.40;1.30;;;23.00;47.80;;;;;;5021098;28;20234;-61
2023/08/02 08:42:52;;;;;;;1.50;1.40;;;23.00;48.60;;;;;;5025404;28;20735;-60
2023/08/02 08:45:19;;;;;;;1.40;1.30;;;23.00;47.80;;;;;;5031389;28;20451;-60
2023/08/02 08:47:45;;;;;;;1.47;1.37;;;23.00;47.80;;;;;;5032399;28;20462;-61
2023/08/02 08:50:11;;;;;;;1.30;1.20;;;23.00;47.90;;;;;;5029133;28;20495;-60
2023/08/02 08:52:39;;;;;;;1.30;1.20;;;23.00;48.00;;;;;;5027890;28;20543;-61
2023/08/02 08:55:07;;;;;;;1.77;1.40;;;23.00;48.00;;;;;;5032358;28;20311;-61
2023/08/02 08:57:32;;;;;;;2.17;1.97;;;23.00;48.00;;;;;;5022260;28;20471;-61
2023/08/02 08:59:58;;;;;;;2.23;1.60;;;23.00;48.10;;;;;;5013930;28;20459;-61
2023/08/02 09:02:24;;;;;;;1.60;1.50;;;23.00;48.20;;;;;;5012228;28;20221;-60
2023/08/02 09:04:51;;;;;;;1.43;1.33;;;23.00;48.30;;;;;;5031351;28;20230;-61
2023/08/02 09:07:17;;;;;;;1.50;1.40;;;23.00;48.30;;;;;;5020703;28;20475;-61
2023/08/02 09:09:42;;;;;;;1.30;1.20;;;23.00;48.50;;;;;;5015590;28;20818;-60
2023/08/02 09:12:08;;;;;;;1.70;1.53;;;23.00;48.50;;;;;;5031011;28;20559;-61
2023/08/02 09:14:33;;;;;;;1.57;1.47;;;23.00;48.80;;;;;;5027145;28;20233;-61
2023/08/02 09:17:01;;;;;;;1.30;1.20;;;22.90;48.60;;;;;;5028288;28;20230;-60
2023/08/02 09:19:32;;;;;;;1.47;1.37;;;22.90;48.70;;;;;;5029168;28;20257;-61
2023/08/02 09:22:08;;;;;;;1.47;1.37;;;22.90;48.80;;;;;;5021417;28;20722;-61
2023/08/02 09:24:36;;;;;;;1.43;1.33;;;22.90;48.80;;;;;;5016518;28;20462;-60
2023/08/02 09:27:03;;;;;;;2.07;1.40;;;23.00;48.90;;;;;;5021977;28;20479;-60
2023/08/02 09:29:42;;;;;;;1.60;1.50;;;22.90;48.90;;;;;;5015451;28;20456;-61
2023/08/02 09:32:08;;;;;;;1.20;1.10;;;22.90;48.90;;;;;;5024833;28;20486;-60
2023/08/02 09:34:49;;;;;;;1.50;1.40;;;22.90;49.00;;;;;;5032467;28;20820;-60
2023/08/02 09:37:16;;;;;;;1.90;1.13;;;22.90;49.00;;;;;;5015603;28;21228;-60
2023/08/02 09:39:51;;;;;;;1.23;1.13;;;22.90;49.00;;;;;;5030373;28;20495;-61
2023/08/02 09:42:21;;;;;;;1.53;1.43;;;22.90;49.00;;;;;;5030930;28;20467;-60
2023/08/02 09:44:58;;;;;;;1.20;1.10;;;22.90;49.00;;;;;;5030718;28;20456;-61
2023/08/02 09:47:26;;;;;;;1.40;1.30;;;22.90;49.10;;;;;;5033576;28;20458;-61
2023/08/02 09:50:03;;;;;;;1.30;1.20;;;22.90;49.10;;;;;;5007842;28;20804;-60
2023/08/02 09:52:28;;;;;;;1.87;1.20;;;22.90;49.00;;;;;;5023728;28;20549;-61
2023/08/02 09:54:54;;;;;;;1.20;1.10;;;22.90;49.10;;;;;;5031565;28;20463;-61
2023/08/02 09:57:28;;;;;;;1.10;1.00;;;22.90;49.10;;;;;;5027650;28;20448;-61
2023/08/02 09:59:55;;;;;;;1.10;1.03;;;22.90;49.10;;;;;;5017112;28;20226;-61
2023/08/02 10:02:25;;;;;;;1.50;1.40;;;22.90;49.10;;;;;;5033606;28;20923;-61
2023/08/02 10:04:56;;;;;;;1.40;1.20;;;22.90;49.10;;;;;;5027621;28;20460;-60
2023/08/02 10:07:32;;;;;;;1.40;1.30;;;22.90;49.20;;;;;;5022460;28;21195;-61
2023/08/02 10:10:03;;;;;;;0.90;0.90;;;22.90;49.20;;;;;;5022099;28;21201;-61
2023/08/02 10:12:29;;;;;;;1.67;1.10;;;22.90;49.20;;;;;;5021648;28;20467;-61
2023/08/02 10:14:57;;;;;;;1.10;1.00;;;22.90;49.20;;;;;;5026735;28;20486;-61
2023/08/02 10:17:27;;;;;;;1.30;1.20;;;22.90;49.20;;;;;;5030853;28;20458;-61
2023/08/02 10:19:53;;;;;;;1.00;0.90;;;22.90;49.20;;;;;;5027104;28;21189;-62
2023/08/02 10:22:20;;;;;;;1.10;1.00;;;22.90;49.30;;;;;;5019458;28;20455;-62
2023/08/02 10:24:47;;;;;;;0.97;0.97;;;22.90;49.20;;;;;;5026835;28;20470;-62
2023/08/02 10:27:13;;;;;;;1.27;0.90;;;22.90;49.30;;;;;;5022015;28;20518;-61
2023/08/02 10:29:39;;;;;;;1.07;1.00;;;22.90;49.30;;;;;;5020519;28;20456;-61
2023/08/02 10:32:11;;;;;;;1.20;1.10;;;22.90;49.20;;;;;;5023844;28;20460;-61
2023/08/02 10:34:37;;;;;;;1.00;0.90;;;22.90;49.20;;;;;;5022866;28;20462;-61
2023/08/02 10:37:03;;;;;;;1.43;1.10;;;22.90;49.20;;;;;;5030831;28;20474;-61
2023/08/02 10:39:47;;;;;;;1.10;1.00;;;22.90;49.30;;;;;;5021929;28;20215;-61
2023/08/02 10:42:14;;;;;;;1.03;0.93;;;22.90;49.20;;;;;;5018199;28;20464;-61
2023/08/02 10:44:55;;;;;;;1.20;1.10;;;22.90;49.20;;;;;;5003640;28;20541;-61
2023/08/02 10:47:28;;;;;;;1.40;1.30;;;22.90;49.20;;;;;;5021031;28;20469;-60
2023/08/02 10:49:55;;;;;;;1.10;1.00;;;22.90;49.20;;;;;;5027331;28;20919;-61
2023/08/02 10:52:29;;;;;;;1.37;1.27;;;22.90;49.20;;;;;;5016950;28;20441;-61
2023/08/02 10:55:16;;;;;;;3.70;1.07;;;22.90;49.20;;;;;;5014889;28;20462;-61
2023/08/02 10:58:05;;;;;;;0.90;0.80;;;22.90;49.20;;;;;;5028673;28;20881;-60
2023/08/02 11:00:33;;;;;;;1.30;1.20;;;22.90;49.20;;;;;;5027021;28;20464;-60
2023/08/02 11:02:59;;;;;;;1.10;1.00;;;22.90;49.30;;;;;;5033882;28;21155;-61
2023/08/02 11:05:46;;;;;;;3.10;1.00;;;22.90;49.30;;;;;;5023982;28;20570;-61
2023/08/02 11:08:12;;;;;;;1.27;1.17;;;22.90;49.30;;;;;;5026353;28;20456;-60
2023/08/02 11:10:55;;;;;;;1.13;1.03;;;22.90;49.30;;;;;;5028507;28;20487;-61
2023/08/02 11:13:22;;;;;;;1.07;1.00;;;22.90;49.30;;;;;;5034290;28;20451;-61
2023/08/02 11:16:03;;;;;;;1.60;0.83;;;22.90;49.30;;;;;;5014525;28;20468;-60
2023/08/02 11:18:33;;;;;;;2.30;0.97;;;22.90;49.40;;;;;;5030065;28;20482;-60
2023/08/02 11:21:09;;;;;;;1.57;0.80;;;22.90;49.30;;;;;;5037260;28;20836;-61
2023/08/02 11:23:35;;;;;;;0.93;0.90;;;22.90;49.30;;;;;;5024540;28;20459;-61
2023/08/02 11:26:08;;;;;;;1.50;1.20;;;22.90;49.40;;;;;;5031482;28;21426;-61
2023/08/02 11:28:44;;;;;;;1.70;0.93;;;22.90;49.30;;;;;;5021712;28;20226;-61
2023/08/02 11:31:11;;;;;;;1.07;0.97;;;22.90;49.20;;;;;;5023661;28;20474;-61
2023/08/02 11:33:38;;;;;;;2.17;1.20;;;22.90;49.30;;;;;;5015563;28;21452;-61
2023/08/02 11:36:04;;;;;;;1.60;1.10;;;22.90;49.30;;;;;;5029030;28;20477;-61
2023/08/02 11:38:30;;;;;;;0.80;0.80;;;22.90;49.20;;;;;;5030344;28;20958;-61
2023/08/02 11:40:56;;;;;;;1.47;0.90;;;22.90;49.30;;;;;;5018860;28;20854;-61
2023/08/02 11:43:38;;;;;;;1.30;1.10;;;22.90;49.20;;;;;;5019267;28;20463;-62
2023/08/02 11:46:15;;;;;;;1.73;1.10;;;22.90;49.20;;;;;;5003820;28;20967;-60
2023/08/02 11:48:41;;;;;;;1.00;0.80;;;22.90;49.20;;;;;;5027152;28;20472;-61
2023/08/02 11:51:08;;;;;;;1.43;0.93;;;22.90;49.30;;;;;;5033389;28;20458;-61
2023/08/02 11:53:35;;;;;;;1.10;1.00;;;22.90;49.20;;;;;;5030926;28;20781;-61
2023/08/02 11:56:01;;;;;;;1.10;0.80;;;22.90;49.20;;;;;;5013941;28;20486;-61
2023/08/02 11:58:27;;;;;;;1.00;0.80;;;22.90;49.20;;;;;;5028550;28;20467;-61
2023/08/02 12:00:52;;;;;;;0.90;0.90;;;22.90;49.20;;;;;;5025848;28;20245;-61
2023/08/02 12:03:19;;;;;;;1.73;0.90;;;22.90;49.10;;;;;;5019593;28;20230;-61
2023/08/02 12:05:45;;;;;;;1.10;0.90;;;22.90;49.20;;;;;;5019292;28;20926;-60
2023/08/02 12:08:17;;;;;;;1.20;0.73;;;22.90;49.20;;;;;;5021276;28;20553;-61
2023/08/02 12:10:43;;;;;;;0.80;0.80;;;22.90;49.10;;;;;;5019382;28;20601;-60
2023/08/02 12:13:16;;;;;;;0.80;0.80;;;22.90;49.10;;;;;;5011214;28;20451;-61
2023/08/02 12:16:00;;;;;;;0.80;0.80;;;22.90;49.10;;;;;;5023676;28;20820;-60
2023/08/02 12:18:25;;;;;;;1.00;0.90;;;22.90;49.10;;;;;;5016302;28;20463;-61
2023/08/02 12:20:51;;;;;;;0.90;0.90;;;22.90;49.10;;;;;;5022031;28;20472;-61
2023/08/02 12:23:32;;;;;;;0.80;0.80;;;22.90;49.20;;;;;;5026553;28;20222;-60
2023/08/02 12:25:58;;;;;;;0.90;0.80;;;22.90;49.20;;;;;;5026846;28;21362;-61
2023/08/02 12:28:24;;;;;;;3.30;1.00;;;23.00;49.30;;;;;;5024193;28;21211;-60
2023/08/02 12:31:03;;;;;;;2.77;0.90;;;22.90;49.20;;;;;;5013087;28;20234;-61
2023/08/02 12:33:29;;;;;;;0.90;0.80;;;23.00;49.30;;;;;;5029290;28;20305;-61
2023/08/02 12:35:54;;;;;;;1.63;1.00;;;23.00;49.30;;;;;;5027998;28;20487;-61
2023/08/02 12:38:20;;;;;;;0.87;0.87;;;22.90;49.30;;;;;;5010849;28;20617;-60
2023/08/02 12:40:46;;;;;;;0.80;0.80;;;23.00;49.30;;;;;;5028926;28;20222;-60
2023/08/02 12:43:12;;;;;;;1.00;0.70;;;22.90;49.30;;;;;;5030467;28;20273;-60
2023/08/02 12:45:37;;;;;;;1.07;0.83;;;22.90;49.30;;;;;;5030599;28;20255;-61
2023/08/02 12:48:03;;;;;;;2.60;0.90;;;23.00;50.10;;;;;;5011221;28;20286;-61